createdAt,value
2017-10-28T00:02:56.464Z,36.5
2017-10-28T00:13:11.047Z,37.6
2017-10-28T00:23:25.258Z,38.2
2017-10-28T00:33:39.974Z,40.2
2017-10-28T00:43:53.789Z,40.8
2017-10-28T00:54:09.172Z,41.2
2017-10-28T01:04:24.411Z,48.5
2017-10-28T01:14:39.256Z,56.6
2017-10-28T01:24:54.789Z,54.5
2017-10-28T01:35:08.514Z,51.1
2017-10-28T01:45:23.940Z,50.1
2017-10-28T01:55:37.998Z,49.7
2017-10-28T02:05:52.624Z,51.5
2017-10-28T02:16:06.561Z,52.7
2017-10-28T02:26:21.606Z,51.5
2017-10-28T02:36:35.391Z,52
2017-10-28T02:46:49.105Z,52.9
2017-10-28T02:57:03.759Z,52.9
2017-10-28T03:07:18.571Z,50.5
2017-10-28T03:17:33.287Z,53.5
2017-10-28T03:27:48.111Z,53.1
2017-10-28T03:38:01.893Z,53.8
2017-10-28T03:48:17.026Z,52.8
2017-10-28T03:58:30.944Z,54
2017-10-28T04:08:46.017Z,56.1
2017-10-28T04:19:00.198Z,57.8
2017-10-28T04:29:15.427Z,58.1
2017-10-28T04:39:29.438Z,57.6
2017-10-28T04:49:44.975Z,55.5
2017-10-28T05:00:00.122Z,53.5
2017-10-28T05:10:14.616Z,53.2
2017-10-28T05:20:29.180Z,55
2017-10-28T05:30:43.225Z,55.4
2017-10-28T05:40:58.719Z,54.9
2017-10-28T05:51:13.464Z,54.9
2017-10-28T06:01:27.690Z,57
2017-10-28T06:11:42.888Z,57.2
2017-10-28T06:21:56.812Z,58.4
2017-10-28T06:32:10.788Z,58.5
2017-10-28T06:42:26.199Z,60.2
2017-10-28T06:52:40.322Z,60.1
2017-10-28T07:02:55.517Z,60.9
2017-10-28T07:13:10.480Z,61
2017-10-28T07:23:25.671Z,61.8
2017-10-28T07:33:40.451Z,61.3
2017-10-28T07:43:55.253Z,65.1
2017-10-28T07:54:09.547Z,64.4
2017-10-28T08:04:24.219Z,63.3
2017-10-28T08:14:39.047Z,63.9
2017-10-28T08:24:53.727Z,65.6
2017-10-28T08:35:07.625Z,66.5
2017-10-28T08:45:21.696Z,66.1
2017-10-28T08:55:36.267Z,68.8
2017-10-28T09:05:50.202Z,70.2
2017-10-28T09:16:04.825Z,69.9
2017-10-28T09:26:20.345Z,70.1
2017-10-28T09:36:34.649Z,71
2017-10-28T09:46:49.266Z,70.3
2017-10-28T09:57:03.497Z,71.2
2017-10-28T10:07:17.537Z,70.9
2017-10-28T10:17:33.011Z,71.7
2017-10-28T10:27:47.579Z,71.3
2017-10-28T10:38:03.115Z,71.2
2017-10-28T10:48:17.497Z,72.3
2017-10-28T10:58:31.135Z,72.8
2017-10-28T11:08:44.878Z,75.3
2017-10-28T11:18:59.758Z,77.4
2017-10-28T11:29:13.550Z,77.6
2017-10-28T11:39:27.509Z,79.6
2017-10-28T11:49:42.399Z,80.4
2017-10-28T11:59:56.263Z,82.7
2017-10-28T12:10:11.849Z,81.9
2017-10-28T12:20:27.507Z,84.2
2017-10-28T12:30:41.245Z,84.4
2017-10-28T12:40:56.885Z,85.7
2017-10-28T12:51:11.812Z,86.4
2017-10-28T13:01:27.027Z,86.2
2017-10-28T13:11:40.876Z,86.2
2017-10-28T13:21:55.402Z,85.1
2017-10-28T13:32:10.819Z,87.2
2017-10-28T13:42:26.268Z,85.2
2017-10-28T13:52:40.414Z,85.2
2017-10-28T14:02:55.167Z,83.7
2017-10-28T14:13:09.997Z,82
2017-10-28T14:23:23.786Z,81.2
2017-10-28T14:33:38.432Z,80.2
2017-10-28T14:43:53.904Z,80.2
2017-10-28T14:54:08.064Z,78.9
2017-10-28T15:04:23.456Z,76.5
2017-10-28T15:14:39.183Z,73.8
2017-10-28T15:24:53.575Z,54.2
2017-10-28T15:35:08.085Z,39.4
2017-10-28T15:45:23.277Z,32.3
2017-10-28T15:55:37.456Z,28.9
2017-10-28T16:05:52.512Z,27
2017-10-28T16:16:07.190Z,25.9
2017-10-28T16:26:22.915Z,24.9
2017-10-28T16:36:38.248Z,24.6
2017-10-28T16:46:53.516Z,23.9
2017-10-28T16:57:08.824Z,23.3
2017-10-28T17:07:23.001Z,22.9
2017-10-28T17:17:37.183Z,22.6
2017-10-28T17:27:51.294Z,22
2017-10-28T17:38:06.558Z,22
2017-10-28T17:48:21.839Z,21.2
2017-10-28T17:58:36.313Z,21.1
2017-10-28T18:08:51.401Z,21
2017-10-28T18:19:05.143Z,20.6
2017-10-28T18:29:19.584Z,20.3
2017-10-28T18:39:33.323Z,20.5
2017-10-28T18:49:47.694Z,19.7
2017-10-28T19:00:03.338Z,19.9
2017-10-28T19:10:17.392Z,19.5
2017-10-28T19:20:31.150Z,19.5
2017-10-28T19:30:46.437Z,19.3
2017-10-28T19:41:00.947Z,19.2
2017-10-28T19:51:16.327Z,18.9
2017-10-28T20:01:31.203Z,18.8
2017-10-28T20:11:46.161Z,18.7
2017-10-28T20:22:01.133Z,18.8
2017-10-28T20:32:16.182Z,19
2017-10-28T20:42:30.217Z,19
2017-10-28T20:52:45.810Z,19.4
2017-10-28T21:02:59.831Z,19.4
2017-10-28T21:13:15.023Z,18.9
2017-10-28T21:23:30.143Z,19.5
2017-10-28T21:33:45.330Z,19.6
2017-10-28T21:44:00.914Z,19.9
2017-10-28T21:54:15.525Z,19.8
2017-10-28T22:04:30.164Z,19.9
2017-10-28T22:14:45.131Z,20.3
2017-10-28T22:25:00.169Z,20.2
2017-10-28T22:35:14.239Z,20.1
2017-10-28T22:45:29.781Z,20.7
2017-10-28T22:55:44.528Z,21.8
2017-10-28T23:05:58.446Z,22.4
2017-10-28T23:16:13.920Z,23.1
2017-10-28T23:26:28.541Z,25.1
2017-10-28T23:36:42.804Z,25.8
2017-10-28T23:46:57.759Z,25.5
2017-10-28T23:57:11.560Z,24.5
